sensor_id;sensor_type;location;lat;lon;timestamp;P1;durP1;ratioP1;P2;durP2;ratioP2
68475;SDS011;55464;48.266;14.188;2022-07-22T00:02:05;15.30;;;11.93;;
68475;SDS011;55464;48.266;14.188;2022-07-22T00:04:31;19.98;;;11.30;;
68475;SDS011;55464;48.266;14.188;2022-07-22T00:06:57;16.83;;;11.40;;
68475;SDS011;55464;48.266;14.188;2022-07-22T00:09:22;16.00;;;11.60;;
68475;SDS011;55464;48.266;14.188;2022-07-22T00:11:48;14.77;;;11.38;;
68475;SDS011;55464;48.266;14.188;2022-07-22T00:14:14;14.70;;;11.77;;
68475;SDS011;55464;48.266;14.188;2022-07-22T00:16:39;15.35;;;11.57;;
68475;SDS011;55464;48.266;14.188;2022-07-22T00:19:05;17.83;;;11.70;;
68475;SDS011;55464;48.266;14.188;2022-07-22T00:21:31;17.85;;;12.30;;
68475;SDS011;55464;48.266;14.188;2022-07-22T00:23:56;14.82;;;11.95;;
68475;SDS011;55464;48.266;14.188;2022-07-22T00:26:22;13.55;;;11.20;;
68475;SDS011;55464;48.266;14.188;2022-07-22T00:28:51;13.18;;;11.15;;
68475;SDS011;55464;48.266;14.188;2022-07-22T00:31:16;18.48;;;11.50;;
68475;SDS011;55464;48.266;14.188;2022-07-22T00:33:42;17.70;;;11.40;;
68475;SDS011;55464;48.266;14.188;2022-07-22T00:36:08;16.73;;;11.57;;
68475;SDS011;55464;48.266;14.188;2022-07-22T00:38:34;14.27;;;10.90;;
68475;SDS011;55464;48.266;14.188;2022-07-22T00:41:00;16.95;;;12.57;;
68475;SDS011;55464;48.266;14.188;2022-07-22T00:43:26;16.58;;;11.80;;
68475;SDS011;55464;48.266;14.188;2022-07-22T00:45:52;17.55;;;11.35;;
68475;SDS011;55464;48.266;14.188;2022-07-22T00:48:18;15.25;;;11.85;;
68475;SDS011;55464;48.266;14.188;2022-07-22T00:50:44;17.70;;;11.60;;
68475;SDS011;55464;48.266;14.188;2022-07-22T00:53:10;15.07;;;11.70;;
68475;SDS011;55464;48.266;14.188;2022-07-22T00:55:36;16.25;;;12.80;;
68475;SDS011;55464;48.266;14.188;2022-07-22T00:58:03;20.00;;;11.57;;
68475;SDS011;55464;48.266;14.188;2022-07-22T01:00:29;15.32;;;11.77;;
68475;SDS011;55464;48.266;14.188;2022-07-22T01:02:55;14.20;;;12.13;;
68475;SDS011;55464;48.266;14.188;2022-07-22T01:05:21;19.55;;;12.18;;
68475;SDS011;55464;48.266;14.188;2022-07-22T01:07:46;16.48;;;12.18;;
68475;SDS011;55464;48.266;14.188;2022-07-22T01:10:13;18.27;;;11.98;;
68475;SDS011;55464;48.266;14.188;2022-07-22T01:12:39;16.67;;;13.57;;
68475;SDS011;55464;48.266;14.188;2022-07-22T01:15:05;17.35;;;12.65;;
68475;SDS011;55464;48.266;14.188;2022-07-22T01:17:32;17.67;;;12.55;;
68475;SDS011;55464;48.266;14.188;2022-07-22T01:20:00;19.55;;;12.48;;
68475;SDS011;55464;48.266;14.188;2022-07-22T01:22:30;18.35;;;13.02;;
68475;SDS011;55464;48.266;14.188;2022-07-22T01:24:56;16.77;;;12.45;;
68475;SDS011;55464;48.266;14.188;2022-07-22T01:27:21;17.45;;;12.43;;
68475;SDS011;55464;48.266;14.188;2022-07-22T01:29:47;16.92;;;12.85;;
68475;SDS011;55464;48.266;14.188;2022-07-22T01:32:13;16.67;;;12.30;;
68475;SDS011;55464;48.266;14.188;2022-07-22T01:34:38;15.43;;;12.13;;
68475;SDS011;55464;48.266;14.188;2022-07-22T01:37:04;16.88;;;12.95;;
68475;SDS011;55464;48.266;14.188;2022-07-22T01:39:30;20.65;;;12.90;;
68475;SDS011;55464;48.266;14.188;2022-07-22T01:41:55;13.93;;;11.43;;
68475;SDS011;55464;48.266;14.188;2022-07-22T01:44:21;16.67;;;12.32;;
68475;SDS011;55464;48.266;14.188;2022-07-22T01:46:47;15.05;;;12.13;;
68475;SDS011;55464;48.266;14.188;2022-07-22T01:49:13;20.27;;;12.40;;
68475;SDS011;55464;48.266;14.188;2022-07-22T01:51:40;16.40;;;12.88;;
68475;SDS011;55464;48.266;14.188;2022-07-22T01:54:05;18.83;;;12.48;;
68475;SDS011;55464;48.266;14.188;2022-07-22T01:56:31;15.68;;;12.75;;
68475;SDS011;55464;48.266;14.188;2022-07-22T01:58:57;17.13;;;12.48;;
68475;SDS011;55464;48.266;14.188;2022-07-22T02:01:23;19.73;;;13.38;;
68475;SDS011;55464;48.266;14.188;2022-07-22T02:03:49;17.65;;;13.18;;
68475;SDS011;55464;48.266;14.188;2022-07-22T02:06:15;18.70;;;13.60;;
68475;SDS011;55464;48.266;14.188;2022-07-22T02:08:41;19.75;;;13.43;;
68475;SDS011;55464;48.266;14.188;2022-07-22T02:11:07;18.27;;;13.52;;
68475;SDS011;55464;48.266;14.188;2022-07-22T02:13:32;19.80;;;13.43;;
68475;SDS011;55464;48.266;14.188;2022-07-22T02:15:58;18.55;;;12.32;;
68475;SDS011;55464;48.266;14.188;2022-07-22T02:18:23;19.42;;;13.00;;
68475;SDS011;55464;48.266;14.188;2022-07-22T02:20:50;19.60;;;13.30;;
68475;SDS011;55464;48.266;14.188;2022-07-22T02:23:16;19.48;;;13.38;;
68475;SDS011;55464;48.266;14.188;2022-07-22T02:25:42;21.50;;;14.25;;
68475;SDS011;55464;48.266;14.188;2022-07-22T02:28:08;15.50;;;12.35;;
68475;SDS011;55464;48.266;14.188;2022-07-22T02:30:33;16.35;;;12.70;;
68475;SDS011;55464;48.266;14.188;2022-07-22T02:32:59;15.63;;;11.00;;
68475;SDS011;55464;48.266;14.188;2022-07-22T02:35:25;18.23;;;13.70;;
68475;SDS011;55464;48.266;14.188;2022-07-22T02:37:50;19.45;;;13.75;;
68475;SDS011;55464;48.266;14.188;2022-07-22T02:40:16;17.50;;;14.23;;
68475;SDS011;55464;48.266;14.188;2022-07-22T02:42:42;18.92;;;14.38;;
68475;SDS011;55464;48.266;14.188;2022-07-22T02:45:08;20.35;;;15.15;;
68475;SDS011;55464;48.266;14.188;2022-07-22T02:47:34;23.15;;;16.13;;
68475;SDS011;55464;48.266;14.188;2022-07-22T02:50:00;19.40;;;15.35;;
68475;SDS011;55464;48.266;14.188;2022-07-22T02:52:26;21.98;;;16.20;;
68475;SDS011;55464;48.266;14.188;2022-07-22T02:54:51;21.65;;;16.17;;
68475;SDS011;55464;48.266;14.188;2022-07-22T02:57:17;19.27;;;15.13;;
68475;SDS011;55464;48.266;14.188;2022-07-22T02:59:43;18.98;;;13.43;;
68475;SDS011;55464;48.266;14.188;2022-07-22T03:02:09;18.90;;;13.77;;
68475;SDS011;55464;48.266;14.188;2022-07-22T03:04:35;19.48;;;13.93;;
68475;SDS011;55464;48.266;14.188;2022-07-22T03:07:00;18.95;;;13.68;;
68475;SDS011;55464;48.266;14.188;2022-07-22T03:09:26;16.33;;;13.13;;
68475;SDS011;55464;48.266;14.188;2022-07-22T03:11:52;22.02;;;14.02;;
68475;SDS011;55464;48.266;14.188;2022-07-22T03:14:17;16.73;;;13.45;;
68475;SDS011;55464;48.266;14.188;2022-07-22T03:16:43;16.88;;;12.32;;
68475;SDS011;55464;48.266;14.188;2022-07-22T03:19:09;18.42;;;14.18;;
68475;SDS011;55464;48.266;14.188;2022-07-22T03:21:35;19.85;;;14.32;;
68475;SDS011;55464;48.266;14.188;2022-07-22T03:24:01;18.95;;;13.00;;
68475;SDS011;55464;48.266;14.188;2022-07-22T03:26:27;16.60;;;13.60;;
68475;SDS011;55464;48.266;14.188;2022-07-22T03:28:53;18.52;;;13.48;;
68475;SDS011;55464;48.266;14.188;2022-07-22T03:31:18;18.95;;;14.13;;
68475;SDS011;55464;48.266;14.188;2022-07-22T03:33:44;17.90;;;13.68;;
68475;SDS011;55464;48.266;14.188;2022-07-22T03:36:10;19.17;;;13.00;;
68475;SDS011;55464;48.266;14.188;2022-07-22T03:38:36;21.50;;;13.82;;
68475;SDS011;55464;48.266;14.188;2022-07-22T03:41:02;18.08;;;13.27;;
68475;SDS011;55464;48.266;14.188;2022-07-22T03:43:29;17.75;;;13.25;;
68475;SDS011;55464;48.266;14.188;2022-07-22T03:45:55;24.25;;;13.05;;
68475;SDS011;55464;48.266;14.188;2022-07-22T03:48:21;21.25;;;13.00;;
68475;SDS011;55464;48.266;14.188;2022-07-22T03:50:46;18.05;;;13.73;;
68475;SDS011;55464;48.266;14.188;2022-07-22T03:53:14;16.40;;;12.57;;
68475;SDS011;55464;48.266;14.188;2022-07-22T03:55:39;16.95;;;13.48;;
68475;SDS011;55464;48.266;14.188;2022-07-22T03:58:05;17.23;;;12.98;;
68475;SDS011;55464;48.266;14.188;2022-07-22T04:00:31;20.33;;;12.93;;
68475;SDS011;55464;48.266;14.188;2022-07-22T04:02:57;18.27;;;13.00;;
68475;SDS011;55464;48.266;14.188;2022-07-22T04:05:22;19.70;;;13.18;;
68475;SDS011;55464;48.266;14.188;2022-07-22T04:07:48;16.85;;;13.38;;
68475;SDS011;55464;48.266;14.188;2022-07-22T04:10:14;18.92;;;14.13;;
68475;SDS011;55464;48.266;14.188;2022-07-22T04:12:40;15.80;;;12.98;;
68475;SDS011;55464;48.266;14.188;2022-07-22T04:15:06;17.98;;;13.55;;
68475;SDS011;55464;48.266;14.188;2022-07-22T04:17:32;16.45;;;12.35;;
68475;SDS011;55464;48.266;14.188;2022-07-22T04:19:58;15.40;;;12.07;;
68475;SDS011;55464;48.266;14.188;2022-07-22T04:22:25;16.42;;;11.90;;
68475;SDS011;55464;48.266;14.188;2022-07-22T04:24:52;13.52;;;10.68;;
68475;SDS011;55464;48.266;14.188;2022-07-22T04:27:17;12.95;;;10.35;;
68475;SDS011;55464;48.266;14.188;2022-07-22T04:29:43;10.02;;;8.98;;
68475;SDS011;55464;48.266;14.188;2022-07-22T04:32:09;11.20;;;8.70;;
68475;SDS011;55464;48.266;14.188;2022-07-22T04:34:34;8.80;;;7.53;;
68475;SDS011;55464;48.266;14.188;2022-07-22T04:37:00;9.18;;;7.65;;
68475;SDS011;55464;48.266;14.188;2022-07-22T04:39:26;8.95;;;8.05;;
68475;SDS011;55464;48.266;14.188;2022-07-22T04:41:51;8.82;;;7.93;;
68475;SDS011;55464;48.266;14.188;2022-07-22T04:44:17;8.52;;;7.55;;
68475;SDS011;55464;48.266;14.188;2022-07-22T04:46:43;7.82;;;7.10;;
68475;SDS011;55464;48.266;14.188;2022-07-22T04:49:08;8.00;;;7.20;;
68475;SDS011;55464;48.266;14.188;2022-07-22T04:51:34;9.68;;;7.78;;
68475;SDS011;55464;48.266;14.188;2022-07-22T04:53:59;7.50;;;6.75;;
68475;SDS011;55464;48.266;14.188;2022-07-22T04:56:25;8.57;;;7.07;;
68475;SDS011;55464;48.266;14.188;2022-07-22T04:58:51;9.52;;;7.93;;
68475;SDS011;55464;48.266;14.188;2022-07-22T05:01:16;10.90;;;8.00;;
68475;SDS011;55464;48.266;14.188;2022-07-22T05:03:42;10.48;;;8.65;;
68475;SDS011;55464;48.266;14.188;2022-07-22T05:06:08;9.85;;;8.57;;
68475;SDS011;55464;48.266;14.188;2022-07-22T05:08:34;10.40;;;8.90;;
68475;SDS011;55464;48.266;14.188;2022-07-22T05:11:00;9.93;;;8.85;;
68475;SDS011;55464;48.266;14.188;2022-07-22T05:13:26;9.73;;;8.73;;
68475;SDS011;55464;48.266;14.188;2022-07-22T05:15:52;11.95;;;8.63;;
68475;SDS011;55464;48.266;14.188;2022-07-22T05:18:18;18.35;;;9.98;;
68475;SDS011;55464;48.266;14.188;2022-07-22T05:20:44;10.73;;;9.32;;
68475;SDS011;55464;48.266;14.188;2022-07-22T05:23:10;11.77;;;8.98;;
68475;SDS011;55464;48.266;14.188;2022-07-22T05:25:36;11.98;;;9.00;;
68475;SDS011;55464;48.266;14.188;2022-07-22T05:28:01;11.32;;;9.52;;
68475;SDS011;55464;48.266;14.188;2022-07-22T05:30:27;9.68;;;8.60;;
68475;SDS011;55464;48.266;14.188;2022-07-22T05:32:53;9.15;;;7.97;;
68475;SDS011;55464;48.266;14.188;2022-07-22T05:35:18;10.52;;;9.00;;
68475;SDS011;55464;48.266;14.188;2022-07-22T05:37:44;12.68;;;9.70;;
68475;SDS011;55464;48.266;14.188;2022-07-22T05:40:11;12.55;;;9.90;;
68475;SDS011;55464;48.266;14.188;2022-07-22T05:42:37;12.40;;;10.45;;
68475;SDS011;55464;48.266;14.188;2022-07-22T05:45:02;16.02;;;10.98;;
68475;SDS011;55464;48.266;14.188;2022-07-22T05:47:29;16.83;;;12.60;;
68475;SDS011;55464;48.266;14.188;2022-07-22T05:49:54;17.88;;;13.27;;
68475;SDS011;55464;48.266;14.188;2022-07-22T05:52:20;19.33;;;14.23;;
68475;SDS011;55464;48.266;14.188;2022-07-22T05:54:46;18.48;;;13.73;;
68475;SDS011;55464;48.266;14.188;2022-07-22T05:57:11;18.90;;;14.80;;
68475;SDS011;55464;48.266;14.188;2022-07-22T05:59:37;23.25;;;15.50;;
68475;SDS011;55464;48.266;14.188;2022-07-22T06:02:03;22.05;;;13.88;;
68475;SDS011;55464;48.266;14.188;2022-07-22T06:04:29;21.83;;;15.48;;
68475;SDS011;55464;48.266;14.188;2022-07-22T06:06:54;22.08;;;15.75;;
68475;SDS011;55464;48.266;14.188;2022-07-22T06:09:20;23.75;;;16.15;;
68475;SDS011;55464;48.266;14.188;2022-07-22T06:11:46;20.92;;;15.30;;
68475;SDS011;55464;48.266;14.188;2022-07-22T06:14:11;26.58;;;17.48;;
68475;SDS011;55464;48.266;14.188;2022-07-22T06:16:37;27.52;;;17.17;;
68475;SDS011;55464;48.266;14.188;2022-07-22T06:19:03;27.85;;;17.95;;
68475;SDS011;55464;48.266;14.188;2022-07-22T06:21:29;30.88;;;18.98;;
68475;SDS011;55464;48.266;14.188;2022-07-22T06:23:54;23.38;;;17.23;;
68475;SDS011;55464;48.266;14.188;2022-07-22T06:26:20;24.85;;;18.63;;
68475;SDS011;55464;48.266;14.188;2022-07-22T06:28:46;23.80;;;17.67;;
68475;SDS011;55464;48.266;14.188;2022-07-22T06:31:12;25.10;;;18.25;;
68475;SDS011;55464;48.266;14.188;2022-07-22T06:33:37;24.33;;;17.30;;
68475;SDS011;55464;48.266;14.188;2022-07-22T06:36:03;24.63;;;17.17;;
68475;SDS011;55464;48.266;14.188;2022-07-22T06:38:30;21.90;;;16.58;;
68475;SDS011;55464;48.266;14.188;2022-07-22T06:40:55;20.30;;;16.27;;
68475;SDS011;55464;48.266;14.188;2022-07-22T06:43:21;22.98;;;17.05;;
68475;SDS011;55464;48.266;14.188;2022-07-22T06:45:47;22.48;;;16.70;;
68475;SDS011;55464;48.266;14.188;2022-07-22T06:48:12;28.30;;;17.90;;
68475;SDS011;55464;48.266;14.188;2022-07-22T06:50:38;24.33;;;17.48;;
68475;SDS011;55464;48.266;14.188;2022-07-22T06:53:04;22.88;;;16.35;;
68475;SDS011;55464;48.266;14.188;2022-07-22T06:55:30;25.27;;;16.70;;
68475;SDS011;55464;48.266;14.188;2022-07-22T06:57:56;22.20;;;17.10;;
68475;SDS011;55464;48.266;14.188;2022-07-22T07:00:21;25.40;;;17.67;;
68475;SDS011;55464;48.266;14.188;2022-07-22T07:02:47;19.88;;;15.48;;
68475;SDS011;55464;48.266;14.188;2022-07-22T07:05:13;24.65;;;17.77;;
68475;SDS011;55464;48.266;14.188;2022-07-22T07:07:39;23.92;;;17.42;;
68475;SDS011;55464;48.266;14.188;2022-07-22T07:10:04;22.23;;;16.77;;
68475;SDS011;55464;48.266;14.188;2022-07-22T07:12:30;24.20;;;18.02;;
68475;SDS011;55464;48.266;14.188;2022-07-22T07:14:56;24.77;;;16.98;;
68475;SDS011;55464;48.266;14.188;2022-07-22T07:17:22;24.10;;;17.75;;
68475;SDS011;55464;48.266;14.188;2022-07-22T07:19:49;23.35;;;15.55;;
68475;SDS011;55464;48.266;14.188;2022-07-22T07:22:14;23.45;;;17.60;;
68475;SDS011;55464;48.266;14.188;2022-07-22T07:24:40;27.88;;;17.30;;
68475;SDS011;55464;48.266;14.188;2022-07-22T07:27:07;21.48;;;16.33;;
68475;SDS011;55464;48.266;14.188;2022-07-22T07:29:32;21.27;;;16.55;;
68475;SDS011;55464;48.266;14.188;2022-07-22T07:31:58;25.48;;;16.83;;
68475;SDS011;55464;48.266;14.188;2022-07-22T07:34:24;24.23;;;16.90;;
68475;SDS011;55464;48.266;14.188;2022-07-22T07:36:49;24.95;;;16.98;;
68475;SDS011;55464;48.266;14.188;2022-07-22T07:39:15;23.95;;;16.65;;
68475;SDS011;55464;48.266;14.188;2022-07-22T07:41:41;25.20;;;17.65;;
68475;SDS011;55464;48.266;14.188;2022-07-22T07:44:07;24.95;;;17.67;;
68475;SDS011;55464;48.266;14.188;2022-07-22T07:46:32;21.00;;;15.70;;
68475;SDS011;55464;48.266;14.188;2022-07-22T07:48:58;18.48;;;14.82;;
68475;SDS011;55464;48.266;14.188;2022-07-22T07:51:24;21.63;;;15.63;;
68475;SDS011;55464;48.266;14.188;2022-07-22T07:53:49;21.20;;;15.60;;
68475;SDS011;55464;48.266;14.188;2022-07-22T07:56:15;21.35;;;15.57;;
68475;SDS011;55464;48.266;14.188;2022-07-22T07:58:41;20.13;;;15.30;;
68475;SDS011;55464;48.266;14.188;2022-07-22T08:01:07;20.75;;;14.48;;
68475;SDS011;55464;48.266;14.188;2022-07-22T08:03:33;24.10;;;14.57;;
68475;SDS011;55464;48.266;14.188;2022-07-22T08:05:58;19.42;;;14.15;;
68475;SDS011;55464;48.266;14.188;2022-07-22T08:08:25;20.13;;;14.60;;
68475;SDS011;55464;48.266;14.188;2022-07-22T08:10:50;22.50;;;15.98;;
68475;SDS011;55464;48.266;14.188;2022-07-22T08:13:17;23.58;;;16.13;;
68475;SDS011;55464;48.266;14.188;2022-07-22T08:15:42;25.92;;;15.05;;
68475;SDS011;55464;48.266;14.188;2022-07-22T08:18:08;22.92;;;14.70;;
68475;SDS011;55464;48.266;14.188;2022-07-22T08:20:34;20.05;;;13.32;;
68475;SDS011;55464;48.266;14.188;2022-07-22T08:22:59;19.20;;;14.73;;
68475;SDS011;55464;48.266;14.188;2022-07-22T08:25:25;21.52;;;15.18;;
68475;SDS011;55464;48.266;14.188;2022-07-22T08:27:51;20.85;;;13.82;;
68475;SDS011;55464;48.266;14.188;2022-07-22T08:30:16;16.25;;;12.57;;
68475;SDS011;55464;48.266;14.188;2022-07-22T08:32:43;18.75;;;13.25;;
68475;SDS011;55464;48.266;14.188;2022-07-22T08:35:09;16.98;;;13.02;;
68475;SDS011;55464;48.266;14.188;2022-07-22T08:37:35;17.35;;;12.65;;
68475;SDS011;55464;48.266;14.188;2022-07-22T08:40:02;20.17;;;14.15;;
68475;SDS011;55464;48.266;14.188;2022-07-22T08:42:28;21.70;;;15.13;;
68475;SDS011;55464;48.266;14.188;2022-07-22T08:44:55;20.88;;;14.25;;
68475;SDS011;55464;48.266;14.188;2022-07-22T08:47:22;22.98;;;15.98;;
68475;SDS011;55464;48.266;14.188;2022-07-22T08:49:49;18.65;;;13.73;;
68475;SDS011;55464;48.266;14.188;2022-07-22T08:52:14;18.00;;;12.88;;
68475;SDS011;55464;48.266;14.188;2022-07-22T08:54:40;17.67;;;12.90;;
68475;SDS011;55464;48.266;14.188;2022-07-22T08:57:06;17.65;;;13.07;;
68475;SDS011;55464;48.266;14.188;2022-07-22T08:59:32;16.17;;;12.07;;
68475;SDS011;55464;48.266;14.188;2022-07-22T09:02:01;18.00;;;13.63;;
68475;SDS011;55464;48.266;14.188;2022-07-22T09:04:27;21.02;;;13.98;;
68475;SDS011;55464;48.266;14.188;2022-07-22T09:06:53;17.90;;;14.50;;
68475;SDS011;55464;48.266;14.188;2022-07-22T09:09:25;20.15;;;15.15;;
68475;SDS011;55464;48.266;14.188;2022-07-22T09:12:07;22.42;;;14.68;;
68475;SDS011;55464;48.266;14.188;2022-07-22T09:14:43;23.35;;;14.75;;
68475;SDS011;55464;48.266;14.188;2022-07-22T09:17:27;22.13;;;15.40;;
68475;SDS011;55464;48.266;14.188;2022-07-22T09:19:59;20.70;;;16.20;;
68475;SDS011;55464;48.266;14.188;2022-07-22T09:22:43;29.98;;;20.80;;
68475;SDS011;55464;48.266;14.188;2022-07-22T09:27:51;24.63;;;15.35;;
68475;SDS011;55464;48.266;14.188;2022-07-22T09:30:18;19.92;;;13.77;;
68475;SDS011;55464;48.266;14.188;2022-07-22T09:32:52;19.98;;;13.77;;
68475;SDS011;55464;48.266;14.188;2022-07-22T09:35:19;22.27;;;13.73;;
68475;SDS011;55464;48.266;14.188;2022-07-22T09:37:49;17.42;;;12.73;;
68475;SDS011;55464;48.266;14.188;2022-07-22T09:40:21;14.25;;;11.32;;
68475;SDS011;55464;48.266;14.188;2022-07-22T09:42:50;18.63;;;12.57;;
68475;SDS011;55464;48.266;14.188;2022-07-22T09:45:18;19.75;;;12.20;;
68475;SDS011;55464;48.266;14.188;2022-07-22T09:47:45;16.15;;;12.25;;
68475;SDS011;55464;48.266;14.188;2022-07-22T09:52:51;16.88;;;12.20;;
68475;SDS011;55464;48.266;14.188;2022-07-22T09:55:19;18.27;;;11.88;;
68475;SDS011;55464;48.266;14.188;2022-07-22T09:57:46;19.95;;;11.85;;
68475;SDS011;55464;48.266;14.188;2022-07-22T10:00:13;19.48;;;12.45;;
68475;SDS011;55464;48.266;14.188;2022-07-22T10:02:45;18.77;;;12.88;;
68475;SDS011;55464;48.266;14.188;2022-07-22T10:05:17;20.77;;;12.88;;
68475;SDS011;55464;48.266;14.188;2022-07-22T10:07:45;18.00;;;11.52;;
68475;SDS011;55464;48.266;14.188;2022-07-22T10:10:15;22.05;;;13.77;;
68475;SDS011;55464;48.266;14.188;2022-07-22T10:12:44;19.52;;;13.57;;
68475;SDS011;55464;48.266;14.188;2022-07-22T10:15:13;20.30;;;13.68;;
68475;SDS011;55464;48.266;14.188;2022-07-22T10:17:40;19.35;;;13.60;;
68475;SDS011;55464;48.266;14.188;2022-07-22T10:20:08;24.87;;;16.27;;
68475;SDS011;55464;48.266;14.188;2022-07-22T10:25:07;14.50;;;11.00;;
68475;SDS011;55464;48.266;14.188;2022-07-22T10:27:44;13.20;;;9.65;;
68475;SDS011;55464;48.266;14.188;2022-07-22T10:30:13;11.85;;;9.18;;
68475;SDS011;55464;48.266;14.188;2022-07-22T10:32:41;14.02;;;9.23;;
68475;SDS011;55464;48.266;14.188;2022-07-22T10:37:44;11.80;;;9.38;;
68475;SDS011;55464;48.266;14.188;2022-07-22T10:40:15;8.98;;;8.07;;
68475;SDS011;55464;48.266;14.188;2022-07-22T10:45:24;13.73;;;8.07;;
68475;SDS011;55464;48.266;14.188;2022-07-22T10:47:54;12.32;;;8.93;;
68475;SDS011;55464;48.266;14.188;2022-07-22T10:53:02;13.30;;;9.20;;
68475;SDS011;55464;48.266;14.188;2022-07-22T10:55:28;10.45;;;8.45;;
68475;SDS011;55464;48.266;14.188;2022-07-22T10:57:54;10.77;;;7.90;;
68475;SDS011;55464;48.266;14.188;2022-07-22T11:00:20;8.02;;;6.93;;
68475;SDS011;55464;48.266;14.188;2022-07-22T11:02:46;10.35;;;7.18;;
68475;SDS011;55464;48.266;14.188;2022-07-22T11:05:12;9.48;;;7.13;;
68475;SDS011;55464;48.266;14.188;2022-07-22T11:07:42;9.07;;;6.65;;
68475;SDS011;55464;48.266;14.188;2022-07-22T11:12:35;8.55;;;6.32;;
68475;SDS011;55464;48.266;14.188;2022-07-22T11:15:00;8.80;;;6.05;;
68475;SDS011;55464;48.266;14.188;2022-07-22T11:17:28;7.38;;;5.60;;
68475;SDS011;55464;48.266;14.188;2022-07-22T11:19:57;6.82;;;5.90;;
68475;SDS011;55464;48.266;14.188;2022-07-22T11:22:23;7.22;;;5.70;;
68475;SDS011;55464;48.266;14.188;2022-07-22T11:24:49;11.48;;;6.85;;
68475;SDS011;55464;48.266;14.188;2022-07-22T11:27:16;7.07;;;6.20;;
68475;SDS011;55464;48.266;14.188;2022-07-22T11:29:43;6.80;;;5.82;;
68475;SDS011;55464;48.266;14.188;2022-07-22T11:32:14;6.90;;;6.20;;
68475;SDS011;55464;48.266;14.188;2022-07-22T11:34:41;7.63;;;5.88;;
68475;SDS011;55464;48.266;14.188;2022-07-22T11:37:10;6.88;;;5.03;;
68475;SDS011;55464;48.266;14.188;2022-07-22T11:39:37;7.57;;;6.07;;
68475;SDS011;55464;48.266;14.188;2022-07-22T11:42:03;8.93;;;6.13;;
68475;SDS011;55464;48.266;14.188;2022-07-22T11:44:30;7.38;;;5.70;;
68475;SDS011;55464;48.266;14.188;2022-07-22T11:46:58;6.03;;;5.53;;
68475;SDS011;55464;48.266;14.188;2022-07-22T11:49:25;6.97;;;6.10;;
68475;SDS011;55464;48.266;14.188;2022-07-22T11:51:52;7.60;;;5.82;;
68475;SDS011;55464;48.266;14.188;2022-07-22T11:54:18;8.32;;;6.20;;
68475;SDS011;55464;48.266;14.188;2022-07-22T11:56:44;6.85;;;5.85;;
68475;SDS011;55464;48.266;14.188;2022-07-22T11:59:14;8.95;;;6.30;;
68475;SDS011;55464;48.266;14.188;2022-07-22T12:01:42;8.25;;;5.60;;
68475;SDS011;55464;48.266;14.188;2022-07-22T12:04:19;7.38;;;5.53;;
68475;SDS011;55464;48.266;14.188;2022-07-22T12:06:49;7.22;;;6.53;;
68475;SDS011;55464;48.266;14.188;2022-07-22T12:09:26;5.82;;;5.30;;
68475;SDS011;55464;48.266;14.188;2022-07-22T12:11:55;7.20;;;5.75;;
68475;SDS011;55464;48.266;14.188;2022-07-22T12:14:28;7.95;;;6.03;;
68475;SDS011;55464;48.266;14.188;2022-07-22T12:19:30;6.88;;;5.90;;
68475;SDS011;55464;48.266;14.188;2022-07-22T12:22:03;7.68;;;5.95;;
68475;SDS011;55464;48.266;14.188;2022-07-22T12:27:20;6.65;;;5.97;;
68475;SDS011;55464;48.266;14.188;2022-07-22T12:29:46;6.80;;;6.03;;
68475;SDS011;55464;48.266;14.188;2022-07-22T12:37:21;6.60;;;5.90;;
68475;SDS011;55464;48.266;14.188;2022-07-22T12:39:56;7.05;;;5.72;;
68475;SDS011;55464;48.266;14.188;2022-07-22T12:42:31;8.30;;;6.20;;
68475;SDS011;55464;48.266;14.188;2022-07-22T12:47:52;6.97;;;5.43;;
68475;SDS011;55464;48.266;14.188;2022-07-22T12:50:27;8.73;;;6.03;;
68475;SDS011;55464;48.266;14.188;2022-07-22T12:52:59;7.30;;;6.13;;
68475;SDS011;55464;48.266;14.188;2022-07-22T12:55:32;6.10;;;5.40;;
68475;SDS011;55464;48.266;14.188;2022-07-22T12:57:58;5.43;;;4.78;;
68475;SDS011;55464;48.266;14.188;2022-07-22T13:00:25;6.38;;;5.40;;
68475;SDS011;55464;48.266;14.188;2022-07-22T13:02:56;5.95;;;5.30;;
68475;SDS011;55464;48.266;14.188;2022-07-22T13:05:22;6.65;;;5.13;;
68475;SDS011;55464;48.266;14.188;2022-07-22T13:07:49;7.05;;;5.63;;
68475;SDS011;55464;48.266;14.188;2022-07-22T13:10:15;6.03;;;5.35;;
68475;SDS011;55464;48.266;14.188;2022-07-22T13:12:42;7.97;;;5.35;;
68475;SDS011;55464;48.266;14.188;2022-07-22T13:15:08;6.65;;;5.43;;
68475;SDS011;55464;48.266;14.188;2022-07-22T13:17:34;10.73;;;6.05;;
68475;SDS011;55464;48.266;14.188;2022-07-22T13:20:01;8.00;;;6.25;;
68475;SDS011;55464;48.266;14.188;2022-07-22T13:22:28;6.25;;;5.60;;
68475;SDS011;55464;48.266;14.188;2022-07-22T13:24:54;6.38;;;5.60;;
68475;SDS011;55464;48.266;14.188;2022-07-22T13:27:19;5.85;;;5.25;;
68475;SDS011;55464;48.266;14.188;2022-07-22T13:29:45;7.28;;;6.05;;
68475;SDS011;55464;48.266;14.188;2022-07-22T13:32:11;6.65;;;5.40;;
68475;SDS011;55464;48.266;14.188;2022-07-22T13:34:36;8.32;;;6.03;;
68475;SDS011;55464;48.266;14.188;2022-07-22T13:37:02;6.35;;;5.70;;
68475;SDS011;55464;48.266;14.188;2022-07-22T13:39:28;8.95;;;5.80;;
68475;SDS011;55464;48.266;14.188;2022-07-22T13:41:53;6.35;;;5.40;;
68475;SDS011;55464;48.266;14.188;2022-07-22T13:44:19;7.38;;;5.63;;
68475;SDS011;55464;48.266;14.188;2022-07-22T13:46:45;7.55;;;5.07;;
68475;SDS011;55464;48.266;14.188;2022-07-22T13:49:12;7.30;;;5.85;;
68475;SDS011;55464;48.266;14.188;2022-07-22T13:51:38;7.35;;;5.80;;
68475;SDS011;55464;48.266;14.188;2022-07-22T13:54:03;11.80;;;6.00;;
68475;SDS011;55464;48.266;14.188;2022-07-22T13:56:30;6.00;;;5.40;;
68475;SDS011;55464;48.266;14.188;2022-07-22T13:58:57;7.43;;;5.63;;
68475;SDS011;55464;48.266;14.188;2022-07-22T14:01:24;8.75;;;6.47;;
68475;SDS011;55464;48.266;14.188;2022-07-22T14:03:50;6.53;;;5.47;;
68475;SDS011;55464;48.266;14.188;2022-07-22T14:06:16;6.57;;;5.90;;
68475;SDS011;55464;48.266;14.188;2022-07-22T14:08:41;5.93;;;5.32;;
68475;SDS011;55464;48.266;14.188;2022-07-22T14:11:07;7.60;;;5.80;;
68475;SDS011;55464;48.266;14.188;2022-07-22T14:13:33;6.55;;;5.45;;
68475;SDS011;55464;48.266;14.188;2022-07-22T14:15:59;5.97;;;5.38;;
68475;SDS011;55464;48.266;14.188;2022-07-22T14:18:44;6.28;;;5.63;;
68475;SDS011;55464;48.266;14.188;2022-07-22T14:21:10;7.07;;;5.80;;
68475;SDS011;55464;48.266;14.188;2022-07-22T14:23:36;7.80;;;5.85;;
68475;SDS011;55464;48.266;14.188;2022-07-22T14:26:01;8.10;;;6.50;;
68475;SDS011;55464;48.266;14.188;2022-07-22T14:28:27;6.70;;;5.82;;
68475;SDS011;55464;48.266;14.188;2022-07-22T14:30:52;6.25;;;5.57;;
68475;SDS011;55464;48.266;14.188;2022-07-22T14:33:18;7.32;;;5.82;;
68475;SDS011;55464;48.266;14.188;2022-07-22T14:35:44;6.95;;;5.55;;
68475;SDS011;55464;48.266;14.188;2022-07-22T14:38:09;5.82;;;5.25;;
68475;SDS011;55464;48.266;14.188;2022-07-22T14:40:35;6.93;;;5.80;;
68475;SDS011;55464;48.266;14.188;2022-07-22T14:43:01;6.32;;;5.45;;
68475;SDS011;55464;48.266;14.188;2022-07-22T14:45:26;7.90;;;5.72;;